createdAt,value
2018-12-29T00:03:43.121Z,17.10
2018-12-29T00:06:11.700Z,16.47
2018-12-29T00:08:40.265Z,18.67
2018-12-29T00:11:08.865Z,19.13
2018-12-29T00:13:37.478Z,21.80
2018-12-29T00:16:06.062Z,16.93
2018-12-29T00:18:34.630Z,16.10
2018-12-29T00:21:03.214Z,17.50
2018-12-29T00:23:31.820Z,18.83
2018-12-29T00:26:00.417Z,16.13
2018-12-29T00:28:28.983Z,16.93
2018-12-29T00:30:57.571Z,14.10
2018-12-29T00:33:26.133Z,16.73
2018-12-29T00:35:54.738Z,17.10
2018-12-29T00:38:23.300Z,16.43
2018-12-29T00:40:52.011Z,19.13
2018-12-29T00:43:20.574Z,19.83
2018-12-29T00:45:49.175Z,19.23
2018-12-29T00:48:17.744Z,15.83
2018-12-29T00:50:46.449Z,16.73
2018-12-29T00:53:15.010Z,20.07
2018-12-29T00:55:43.611Z,14.40
2018-12-29T00:58:12.197Z,18.87
2018-12-29T01:00:40.812Z,15.83
2018-12-29T01:03:09.385Z,17.90
2018-12-29T01:05:37.954Z,23.57
2018-12-29T01:08:06.554Z,20.97
2018-12-29T01:10:35.139Z,19.80
2018-12-29T01:13:03.733Z,20.27
2018-12-29T01:15:32.304Z,18.00
2018-12-29T01:18:00.918Z,17.60
2018-12-29T01:20:29.472Z,20.50
2018-12-29T01:22:58.072Z,21.00
2018-12-29T01:25:26.656Z,25.97
2018-12-29T01:27:55.258Z,23.77
2018-12-29T01:30:23.823Z,20.33
2018-12-29T01:32:52.421Z,21.43
2018-12-29T01:35:20.995Z,18.53
2018-12-29T01:37:49.575Z,19.93
2018-12-29T01:40:18.145Z,24.70
2018-12-29T01:42:46.740Z,23.37
2018-12-29T01:45:17.507Z,24.70
2018-12-29T01:47:47.014Z,36.07
2018-12-29T01:50:15.916Z,25.87
2018-12-29T01:52:44.507Z,23.07
2018-12-29T01:55:13.070Z,26.67
2018-12-29T01:58:00.918Z,25.77
2018-12-29T02:00:29.499Z,24.20
2018-12-29T02:02:58.097Z,29.23
2018-12-29T02:05:26.659Z,25.43
2018-12-29T02:08:14.361Z,27.93
2018-12-29T02:10:42.933Z,27.73
2018-12-29T02:13:11.527Z,28.60
2018-12-29T02:15:40.101Z,31.03
2018-12-29T02:18:08.726Z,21.27
2018-12-29T02:20:37.283Z,25.33
2018-12-29T02:23:05.858Z,21.63
2018-12-29T02:25:34.443Z,23.63
2018-12-29T02:28:03.025Z,26.83
2018-12-29T02:30:31.612Z,26.17
2018-12-29T02:33:00.186Z,22.13
2018-12-29T02:35:28.781Z,25.03
2018-12-29T02:37:57.352Z,25.80
2018-12-29T02:40:25.947Z,23.53
2018-12-29T02:42:54.523Z,21.13
2018-12-29T02:45:23.134Z,24.77
2018-12-29T02:47:51.689Z,23.33
2018-12-29T02:50:20.293Z,25.53
2018-12-29T02:52:48.856Z,23.03
2018-12-29T02:55:36.798Z,26.50
2018-12-29T02:58:24.725Z,30.67
2018-12-29T03:00:53.304Z,21.90
2018-12-29T03:03:21.916Z,25.50
2018-12-29T03:06:09.643Z,26.40
2018-12-29T03:08:38.238Z,25.03
2018-12-29T03:11:06.815Z,27.57
2018-12-29T03:13:54.508Z,21.97
2018-12-29T03:16:23.107Z,24.73
2018-12-29T03:18:51.676Z,25.70
2018-12-29T03:21:20.272Z,29.83
2018-12-29T03:23:48.843Z,26.00
2018-12-29T03:26:17.433Z,27.07
2018-12-29T03:28:45.993Z,25.60
2018-12-29T03:31:14.610Z,25.00
2018-12-29T03:33:43.191Z,22.93
2018-12-29T03:36:11.801Z,29.10
2018-12-29T03:38:40.386Z,24.03
2018-12-29T03:41:08.989Z,24.60
2018-12-29T03:43:37.561Z,23.83
2018-12-29T03:46:06.153Z,18.33
2018-12-29T03:48:34.724Z,21.33
2018-12-29T03:51:03.327Z,24.50
2018-12-29T03:53:31.889Z,28.57
2018-12-29T03:56:00.479Z,25.77
2018-12-29T03:58:29.057Z,22.37
2018-12-29T04:00:57.643Z,27.73
2018-12-29T04:03:26.228Z,26.13
2018-12-29T04:05:54.813Z,19.53
2018-12-29T04:08:23.394Z,23.30
2018-12-29T04:10:51.998Z,23.53
2018-12-29T04:13:20.565Z,23.50
2018-12-29T04:15:57.625Z,27.07
2018-12-29T04:18:19.470Z,32.80
2018-12-29T04:20:48.055Z,24.77
2018-12-29T04:23:16.660Z,24.90
2018-12-29T04:25:45.219Z,24.40
2018-12-29T04:28:13.831Z,25.30
2018-12-29T04:31:01.538Z,27.73
2018-12-29T04:33:30.125Z,24.97
2018-12-29T04:35:58.692Z,21.77
2018-12-29T04:38:27.292Z,27.93
2018-12-29T04:40:55.875Z,27.00
2018-12-29T04:43:24.483Z,29.03
2018-12-29T04:45:53.076Z,26.23
2018-12-29T04:48:21.678Z,26.03
2018-12-29T04:50:50.247Z,31.90
2018-12-29T04:53:18.845Z,30.40
2018-12-29T04:55:47.407Z,25.33
2018-12-29T04:58:16.012Z,27.37
2018-12-29T05:00:44.579Z,29.13
2018-12-29T05:03:13.182Z,30.37
2018-12-29T05:05:41.747Z,34.43
2018-12-29T05:08:10.338Z,28.20
2018-12-29T05:10:58.172Z,32.40
2018-12-29T05:13:26.779Z,27.57
2018-12-29T05:15:55.352Z,26.90
2018-12-29T05:18:23.955Z,30.17
2018-12-29T05:20:52.529Z,26.97
2018-12-29T05:23:21.120Z,27.60
2018-12-29T05:25:49.761Z,26.13
2018-12-29T05:28:20.011Z,37.40
2018-12-29T05:30:48.577Z,27.83
2018-12-29T05:33:17.182Z,31.40
2018-12-29T05:35:45.804Z,26.13
2018-12-29T05:38:14.404Z,25.83
2018-12-29T05:41:03.598Z,28.67
2018-12-29T05:43:32.184Z,25.50
2018-12-29T05:46:00.759Z,32.93
2018-12-29T05:48:29.384Z,31.93
2018-12-29T05:50:57.952Z,24.80
2018-12-29T05:53:26.520Z,28.53
2018-12-29T05:55:55.106Z,26.20
2018-12-29T05:58:23.690Z,28.57
2018-12-29T06:00:52.279Z,22.17
2018-12-29T06:03:20.851Z,31.47
2018-12-29T06:05:49.442Z,27.07
2018-12-29T06:08:18.018Z,26.03
2018-12-29T06:10:46.634Z,23.70
2018-12-29T06:13:15.192Z,26.10
2018-12-29T06:16:02.906Z,26.63
2018-12-29T06:18:31.473Z,24.27
2018-12-29T06:21:00.057Z,32.73
2018-12-29T06:23:28.625Z,25.67
2018-12-29T06:25:57.241Z,26.33
2018-12-29T06:28:25.808Z,30.63
2018-12-29T06:30:54.405Z,33.97
2018-12-29T06:33:22.976Z,21.40
2018-12-29T06:35:51.594Z,29.07
2018-12-29T06:38:20.161Z,28.23
2018-12-29T06:40:48.811Z,26.23
2018-12-29T06:43:17.444Z,25.87
2018-12-29T06:45:46.038Z,32.47
2018-12-29T06:48:14.614Z,31.13
2018-12-29T06:50:43.241Z,31.47
2018-12-29T06:53:11.817Z,27.00
2018-12-29T06:55:40.395Z,30.33
2018-12-29T06:58:08.993Z,36.60
2018-12-29T07:00:37.576Z,35.47
2018-12-29T07:03:06.176Z,32.03
2018-12-29T07:05:34.743Z,26.57
2018-12-29T07:08:03.331Z,31.77
2018-12-29T07:10:31.911Z,33.93
2018-12-29T07:13:00.511Z,26.90
2018-12-29T07:15:29.096Z,33.67
2018-12-29T07:17:57.692Z,39.63
2018-12-29T07:20:26.265Z,39.00
2018-12-29T07:22:54.868Z,30.43
2018-12-29T07:25:23.440Z,37.27
2018-12-29T07:27:52.034Z,46.67
2018-12-29T07:30:20.618Z,34.43
2018-12-29T07:32:49.213Z,32.87
2018-12-29T07:35:17.780Z,29.13
2018-12-29T07:37:46.369Z,35.17
2018-12-29T07:40:14.955Z,27.33
2018-12-29T07:42:43.563Z,31.07
2018-12-29T07:45:12.131Z,34.07
2018-12-29T07:47:40.740Z,28.60
2018-12-29T07:50:09.299Z,36.37
2018-12-29T07:52:37.904Z,29.67
2018-12-29T07:55:25.590Z,28.50
2018-12-29T07:57:54.188Z,30.07
2018-12-29T08:00:43.386Z,28.33
2018-12-29T08:03:11.975Z,31.97
2018-12-29T08:05:40.556Z,33.97
2018-12-29T08:08:09.144Z,28.70
2018-12-29T08:10:38.819Z,24.70
2018-12-29T08:13:08.060Z,29.27
2018-12-29T08:15:36.629Z,28.60
2018-12-29T08:18:05.221Z,27.73
2018-12-29T08:20:33.802Z,30.97
2018-12-29T08:23:02.371Z,22.83
2018-12-29T08:25:50.301Z,27.57
2018-12-29T08:28:18.893Z,26.70
2018-12-29T08:30:47.463Z,26.23
2018-12-29T08:33:16.051Z,26.57
2018-12-29T08:35:44.654Z,22.03
2018-12-29T08:38:32.597Z,24.60
2018-12-29T08:41:01.186Z,25.03
2018-12-29T08:43:29.764Z,25.40
2018-12-29T08:45:58.356Z,33.43
2018-12-29T08:48:26.928Z,30.13
2018-12-29T08:50:55.519Z,30.73
2018-12-29T08:53:24.096Z,31.37
2018-12-29T08:55:52.687Z,28.87
2018-12-29T08:58:21.270Z,32.63
2018-12-29T09:00:49.856Z,25.80
2018-12-29T09:03:18.432Z,31.07
2018-12-29T09:05:47.026Z,28.17
2018-12-29T09:08:15.599Z,30.30
2018-12-29T09:10:44.270Z,31.23
2018-12-29T09:13:14.490Z,26.47
2018-12-29T09:15:43.094Z,23.90
2018-12-29T09:18:11.664Z,23.27
2018-12-29T09:20:40.250Z,31.87
2018-12-29T09:23:08.828Z,27.20
2018-12-29T09:25:37.439Z,22.57
2018-12-29T09:28:06.013Z,20.97
2018-12-29T09:30:34.579Z,18.73
2018-12-29T09:33:03.182Z,18.93
2018-12-29T09:35:31.765Z,24.03
2018-12-29T09:38:00.355Z,25.50
2018-12-29T09:40:28.933Z,27.53
2018-12-29T09:42:57.538Z,23.47
2018-12-29T09:45:26.108Z,17.23
2018-12-29T09:47:54.693Z,20.50
2018-12-29T09:50:23.340Z,16.40
2018-12-29T09:52:53.602Z,20.67
2018-12-29T09:55:22.187Z,23.10
2018-12-29T09:57:50.794Z,29.47
2018-12-29T10:00:19.395Z,20.03
2018-12-29T10:02:47.989Z,20.50
2018-12-29T10:05:16.599Z,25.97
2018-12-29T10:07:45.161Z,23.13
2018-12-29T10:10:13.738Z,22.13
2018-12-29T10:12:42.347Z,25.33
2018-12-29T10:15:10.943Z,23.20
2018-12-29T10:17:39.536Z,24.40
2018-12-29T10:20:08.119Z,19.17
2018-12-29T10:22:36.706Z,19.30
2018-12-29T10:25:26.075Z,20.60
2018-12-29T10:27:54.688Z,19.37
2018-12-29T10:30:23.265Z,21.67
2018-12-29T10:32:51.876Z,28.40
2018-12-29T10:35:20.464Z,30.65
2018-12-29T10:37:49.089Z,19.23
2018-12-29T10:40:17.660Z,21.30
2018-12-29T10:42:46.277Z,21.33
2018-12-29T10:45:14.855Z,21.37
2018-12-29T10:47:43.435Z,24.87
2018-12-29T10:50:12.027Z,20.37
2018-12-29T10:52:40.603Z,22.23
2018-12-29T10:55:09.193Z,22.03
2018-12-29T10:57:39.487Z,19.63
2018-12-29T11:00:34.907Z,20.43
2018-12-29T11:02:59.161Z,22.57
2018-12-29T11:05:27.765Z,21.60
2018-12-29T11:07:56.362Z,19.07
2018-12-29T11:10:26.685Z,22.00
2018-12-29T11:12:55.259Z,16.63
2018-12-29T11:15:23.852Z,18.43
2018-12-29T11:17:52.431Z,17.13
2018-12-29T11:20:21.053Z,19.43
2018-12-29T11:22:49.611Z,21.83
2018-12-29T11:25:18.208Z,24.10
2018-12-29T11:27:46.775Z,28.50
2018-12-29T11:30:15.375Z,19.67
2018-12-29T11:32:43.961Z,21.23
2018-12-29T11:35:31.675Z,22.97
2018-12-29T11:38:00.274Z,18.07
2018-12-29T11:40:48.155Z,22.90
2018-12-29T11:43:16.753Z,23.13
2018-12-29T11:45:45.324Z,30.43
2018-12-29T11:48:13.939Z,23.73
2018-12-29T11:50:42.546Z,24.03
2018-12-29T11:53:11.120Z,26.90
2018-12-29T11:55:58.837Z,23.37
2018-12-29T11:58:27.405Z,24.20
2018-12-29T12:00:56.017Z,27.53
2018-12-29T12:03:45.378Z,27.00
2018-12-29T12:06:13.991Z,23.77
2018-12-29T12:08:42.558Z,24.77
2018-12-29T12:11:11.159Z,27.27
2018-12-29T12:13:39.732Z,26.53
2018-12-29T12:16:08.343Z,25.03
2018-12-29T12:18:36.910Z,27.70
2018-12-29T12:21:05.523Z,24.23
2018-12-29T12:23:34.101Z,29.00
2018-12-29T12:26:02.705Z,21.00
2018-12-29T12:28:31.301Z,25.10
2018-12-29T12:30:59.868Z,26.57
2018-12-29T12:33:30.192Z,21.03
2018-12-29T12:35:58.767Z,23.93
2018-12-29T12:38:27.377Z,17.13
2018-12-29T12:40:55.964Z,17.13
2018-12-29T12:43:24.564Z,20.80
2018-12-29T12:45:54.891Z,17.27
2018-12-29T12:48:23.516Z,16.00
2018-12-29T12:50:53.813Z,25.33
2018-12-29T12:53:22.436Z,24.67
2018-12-29T12:55:51.023Z,21.87
2018-12-29T12:58:21.361Z,19.10
2018-12-29T13:00:51.669Z,22.27
2018-12-29T13:03:21.998Z,17.13
2018-12-29T13:05:52.293Z,17.23
2018-12-29T13:08:20.891Z,23.00
2018-12-29T13:11:08.564Z,18.50
2018-12-29T13:13:37.164Z,18.60
2018-12-29T13:18:53.204Z,18.93
2018-12-29T13:21:21.762Z,14.63
2018-12-29T13:23:52.089Z,17.70
2018-12-29T13:26:20.665Z,19.23
2018-12-29T13:28:49.351Z,19.80
2018-12-29T13:31:17.910Z,15.37
2018-12-29T13:33:46.517Z,21.17
2018-12-29T13:36:16.832Z,18.97
2018-12-29T13:38:45.435Z,16.53
2018-12-29T13:41:14.005Z,16.93
2018-12-29T13:43:42.605Z,19.47
2018-12-29T13:46:11.180Z,21.77
2018-12-29T13:48:39.781Z,18.13
2018-12-29T13:51:08.354Z,16.90
2018-12-29T13:53:43.746Z,15.47
2018-12-29T13:56:12.320Z,18.93
2018-12-29T13:58:42.644Z,16.47
2018-12-29T14:01:30.480Z,16.87
2018-12-29T14:03:59.061Z,14.63
2018-12-29T14:09:15.093Z,14.07
2018-12-29T14:11:43.657Z,15.60
2018-12-29T14:14:12.293Z,17.40
2018-12-29T14:16:42.627Z,13.97
2018-12-29T14:19:11.221Z,24.93
2018-12-29T14:21:39.805Z,20.10
2018-12-29T14:24:08.394Z,17.93
2018-12-29T14:26:36.970Z,15.10
2018-12-29T14:29:05.572Z,14.40
2018-12-29T14:31:34.135Z,15.33
2018-12-29T14:34:02.733Z,15.50
2018-12-29T14:36:31.299Z,19.77
2018-12-29T14:38:59.903Z,19.63
2018-12-29T14:41:28.474Z,18.27
2018-12-29T14:43:57.054Z,13.93
2018-12-29T14:49:13.078Z,15.33
2018-12-29T14:51:41.647Z,18.60
2018-12-29T14:54:10.308Z,17.37
2018-12-29T14:56:40.561Z,19.43
2018-12-29T14:59:09.146Z,18.37
2018-12-29T15:01:39.473Z,22.60
2018-12-29T15:04:08.083Z,16.47
2018-12-29T15:06:36.642Z,16.93
2018-12-29T15:09:26.023Z,19.53
2018-12-29T15:11:54.597Z,21.57
2018-12-29T15:14:23.189Z,21.70
2018-12-29T15:16:53.487Z,19.37
2018-12-29T15:19:22.082Z,19.37
2018-12-29T15:21:50.658Z,16.83
2018-12-29T15:24:19.258Z,18.17
2018-12-29T15:26:47.823Z,17.17
2018-12-29T15:29:18.165Z,24.60
2018-12-29T15:31:46.750Z,23.30
2018-12-29T15:34:15.357Z,15.37
2018-12-29T15:36:43.945Z,15.80
2018-12-29T15:39:12.498Z,28.40
2018-12-29T15:41:41.122Z,21.50
2018-12-29T15:44:09.731Z,18.73
2018-12-29T15:46:38.316Z,17.63
2018-12-29T15:49:06.893Z,18.67
2018-12-29T15:51:35.506Z,17.33
2018-12-29T15:54:04.069Z,18.23
2018-12-29T15:56:34.392Z,16.00
2018-12-29T15:59:02.975Z,13.17
2018-12-29T16:01:31.561Z,12.67
2018-12-29T16:04:00.150Z,15.07
2018-12-29T16:06:28.833Z,17.67
2018-12-29T16:08:57.405Z,15.57
2018-12-29T16:11:27.729Z,14.10
2018-12-29T16:13:56.295Z,17.30
2018-12-29T16:16:24.881Z,15.03
2018-12-29T16:18:58.845Z,12.30
2018-12-29T16:21:23.806Z,14.20
2018-12-29T16:23:52.375Z,13.40
2018-12-29T16:26:20.956Z,17.20
2018-12-29T16:28:49.533Z,17.17
2018-12-29T16:31:18.123Z,13.47
2018-12-29T16:34:07.490Z,13.17
2018-12-29T16:36:37.817Z,14.77
2018-12-29T16:39:27.168Z,10.50
2018-12-29T16:41:55.773Z,13.73
2018-12-29T16:44:24.328Z,13.50
2018-12-29T16:46:54.646Z,16.80
2018-12-29T16:49:23.236Z,10.97
2018-12-29T16:51:51.844Z,15.20
2018-12-29T16:54:20.409Z,11.80
2018-12-29T16:56:48.996Z,11.97
2018-12-29T16:59:17.571Z,13.03
2018-12-29T17:01:46.161Z,8.77
2018-12-29T17:04:14.742Z,10.77
2018-12-29T17:06:43.327Z,8.73
2018-12-29T17:09:11.917Z,8.93
2018-12-29T17:11:40.501Z,7.93
2018-12-29T17:14:09.078Z,9.77
2018-12-29T17:16:39.403Z,7.10
2018-12-29T17:19:14.658Z,9.67
2018-12-29T17:21:38.274Z,10.63
2018-12-29T17:24:08.593Z,9.53
2018-12-29T17:26:37.166Z,6.80
2018-12-29T17:29:05.786Z,8.33
2018-12-29T17:31:34.348Z,8.97
2018-12-29T17:34:04.665Z,7.70
2018-12-29T17:36:33.296Z,13.37
2018-12-29T17:39:01.907Z,17.53
2018-12-29T17:41:30.456Z,8.63
2018-12-29T17:43:59.049Z,8.00
2018-12-29T17:46:29.338Z,7.37
2018-12-29T17:48:57.934Z,7.60
2018-12-29T17:51:26.498Z,8.80
2018-12-29T17:53:55.083Z,9.03
2018-12-29T17:56:25.378Z,10.63
2018-12-29T17:58:53.982Z,7.40
2018-12-29T18:01:22.565Z,9.00
2018-12-29T18:03:51.159Z,5.53
2018-12-29T18:06:19.731Z,5.83
2018-12-29T18:08:48.348Z,7.40
2018-12-29T18:11:16.929Z,7.87
2018-12-29T18:13:45.529Z,15.83
2018-12-29T18:16:15.854Z,8.43
2018-12-29T18:21:18.688Z,6.60
2018-12-29T18:23:47.424Z,7.07
2018-12-29T18:26:17.728Z,11.67
2018-12-29T18:28:46.281Z,7.53
2018-12-29T18:31:14.885Z,13.27
2018-12-29T18:33:43.456Z,12.70
2018-12-29T18:36:12.061Z,10.30
2018-12-29T18:38:42.360Z,8.70
2018-12-29T18:41:10.948Z,7.27
2018-12-29T18:43:39.509Z,9.87
2018-12-29T18:46:08.116Z,9.07
2018-12-29T18:48:36.691Z,8.53
2018-12-29T18:51:05.293Z,10.77
2018-12-29T18:53:33.862Z,10.97
2018-12-29T18:56:02.450Z,8.27
2018-12-29T18:58:31.009Z,8.23
2018-12-29T19:00:59.587Z,9.73
2018-12-29T19:03:28.150Z,9.37
2018-12-29T19:05:58.481Z,10.67
2018-12-29T19:08:27.038Z,9.83
2018-12-29T19:11:14.977Z,10.10
2018-12-29T19:13:43.549Z,8.93
2018-12-29T19:16:12.167Z,11.60
2018-12-29T19:18:59.844Z,7.00
2018-12-29T19:21:28.432Z,10.70
2018-12-29T19:23:58.740Z,10.10
2018-12-29T19:26:29.048Z,9.10
2018-12-29T19:28:59.352Z,12.57
2018-12-29T19:31:27.958Z,12.73
2018-12-29T19:33:56.573Z,13.10
2018-12-29T19:36:25.155Z,9.07
2018-12-29T19:38:53.734Z,11.43
2018-12-29T19:41:22.347Z,17.53
2018-12-29T19:43:52.667Z,13.73
2018-12-29T19:46:22.981Z,12.73
2018-12-29T19:48:51.552Z,15.03
2018-12-29T19:51:20.154Z,12.93
2018-12-29T19:53:48.720Z,18.87
2018-12-29T19:56:17.311Z,15.47
2018-12-29T19:58:45.879Z,14.63
2018-12-29T20:01:14.476Z,13.67
2018-12-29T20:03:43.057Z,14.80
2018-12-29T20:06:30.763Z,13.10
2018-12-29T20:08:59.349Z,13.33
2018-12-29T20:11:27.920Z,13.40
2018-12-29T20:13:56.516Z,13.47
2018-12-29T20:16:25.101Z,12.77
2018-12-29T20:18:53.678Z,13.53
2018-12-29T20:21:22.273Z,12.20
2018-12-29T20:23:50.870Z,14.17
2018-12-29T20:26:19.442Z,15.70
2018-12-29T20:28:48.035Z,13.37
2018-12-29T20:31:16.667Z,14.07
2018-12-29T20:33:46.914Z,13.57
2018-12-29T20:36:34.609Z,13.73
2018-12-29T20:41:44.463Z,15.43
2018-12-29T20:44:13.063Z,14.33
2018-12-29T20:46:41.632Z,13.03
2018-12-29T20:49:10.235Z,13.03
2018-12-29T20:51:38.802Z,11.73
2018-12-29T20:54:07.383Z,12.93
2018-12-29T20:56:35.954Z,14.90
2018-12-29T20:59:04.552Z,13.83
2018-12-29T21:01:33.136Z,13.10
2018-12-29T21:04:03.473Z,11.70
2018-12-29T21:06:32.043Z,9.57
2018-12-29T21:09:00.628Z,9.77
2018-12-29T21:11:29.186Z,10.50
2018-12-29T21:13:57.771Z,9.67
2018-12-29T21:16:26.337Z,11.23
2018-12-29T21:18:54.924Z,11.70
2018-12-29T21:21:23.493Z,16.03
2018-12-29T21:23:52.095Z,13.97
2018-12-29T21:26:20.675Z,11.07
2018-12-29T21:29:08.533Z,10.67
2018-12-29T21:31:37.096Z,11.23
2018-12-29T21:34:05.693Z,10.53
2018-12-29T21:36:34.247Z,8.97
2018-12-29T21:41:38.243Z,11.37
2018-12-29T21:44:06.829Z,13.87
2018-12-29T21:46:35.430Z,11.23
2018-12-29T21:49:03.999Z,9.80
2018-12-29T21:51:32.563Z,10.63
2018-12-29T21:54:02.888Z,10.47
2018-12-29T21:56:50.598Z,14.47
2018-12-29T21:59:19.169Z,11.43
2018-12-29T22:01:47.766Z,12.13
2018-12-29T22:04:18.051Z,11.07
2018-12-29T22:06:46.643Z,11.50
2018-12-29T22:09:15.215Z,9.77
2018-12-29T22:11:43.817Z,10.23
2018-12-29T22:14:12.400Z,9.07
2018-12-29T22:16:40.965Z,10.47
2018-12-29T22:19:28.801Z,14.70
2018-12-29T22:21:57.382Z,9.47
2018-12-29T22:24:25.966Z,10.50
2018-12-29T22:26:54.570Z,11.00
2018-12-29T22:29:23.133Z,9.03
2018-12-29T22:32:12.509Z,16.50
2018-12-29T22:34:41.076Z,8.90
2018-12-29T22:37:09.705Z,9.37
2018-12-29T22:39:38.358Z,11.97
2018-12-29T22:42:06.948Z,8.00
2018-12-29T22:44:35.514Z,8.73
2018-12-29T22:47:04.102Z,7.70
2018-12-29T22:49:32.672Z,9.43
2018-12-29T22:52:01.250Z,9.00
2018-12-29T22:54:29.811Z,7.80
2018-12-29T22:56:58.393Z,9.30
2018-12-29T22:59:26.984Z,7.07
2018-12-29T23:04:30.970Z,5.57
2018-12-29T23:06:59.531Z,7.17
2018-12-29T23:09:28.094Z,7.50
2018-12-29T23:11:56.700Z,7.03
2018-12-29T23:14:25.268Z,5.37
2018-12-29T23:16:55.560Z,9.38
2018-12-29T23:19:24.151Z,6.77
2018-12-29T23:21:52.716Z,5.80
2018-12-29T23:24:21.321Z,5.13
2018-12-29T23:26:49.873Z,6.13
2018-12-29T23:29:20.199Z,8.80
2018-12-29T23:31:48.851Z,7.53
2018-12-29T23:34:19.085Z,8.97
2018-12-29T23:36:47.658Z,5.13
2018-12-29T23:39:16.253Z,5.30
2018-12-29T23:41:46.550Z,7.63
2018-12-29T23:44:15.138Z,5.30
2018-12-29T23:46:43.698Z,5.57
2018-12-29T23:49:12.295Z,5.50
2018-12-29T23:51:40.856Z,4.57
2018-12-29T23:54:30.489Z,6.33
2018-12-29T23:56:59.507Z,6.90
2018-12-29T23:59:28.100Z,4.63
